Time;durP1;ratioP1;P1;durP2;ratioP2;P2;SDS_P1;SDS_P2;PMS_P1;PMS_P2;Temp;Humidity;BMP_temperature;BMP_pressure;BME280_temperature;BME280_humidity;BME280_pressure;Samples;Min_cycle;Max_cycle;Signal;HPM_P1;HPM_P2
2023/01/23 00:01:14;;;;;;;22.17;15.73;;;2.60;99.90;;;;;;4982985;28;20124;-75
2023/01/23 00:03:40;;;;;;;21.10;15.23;;;2.60;99.90;;;;;;4970111;28;20512;-74
2023/01/23 00:06:13;;;;;;;22.13;15.63;;;2.60;99.90;;;;;;4967271;28;20039;-74
2023/01/23 00:08:41;;;;;;;23.90;15.90;;;2.60;99.90;;;;;;4984822;28;20089;-74
2023/01/23 00:11:10;;;;;;;20.65;15.00;;;2.60;99.90;;;;;;4967939;28;20104;-74
2023/01/23 00:13:36;;;;;;;20.13;15.20;;;2.60;99.90;;;;;;4982352;28;20030;-70
2023/01/23 00:16:07;;;;;;;21.02;15.77;;;2.60;99.90;;;;;;4969303;28;20394;-70
2023/01/23 00:18:33;;;;;;;18.33;14.88;;;2.60;99.90;;;;;;4970055;28;20057;-69
2023/01/23 00:21:06;;;;;;;19.55;16.33;;;2.60;99.90;;;;;;4967357;28;20043;-69
2023/01/23 00:23:35;;;;;;;18.33;15.95;;;2.60;99.90;;;;;;4966737;28;20053;-70
2023/01/23 00:26:16;;;;;;;20.95;16.52;;;2.60;99.90;;;;;;4967744;28;20140;-74
2023/01/23 00:28:43;;;;;;;23.30;17.60;;;2.60;99.90;;;;;;4968678;28;20057;-74
2023/01/23 00:31:12;;;;;;;21.83;16.90;;;2.60;99.90;;;;;;4984706;28;20074;-74
2023/01/23 00:33:39;;;;;;;22.90;16.83;;;2.60;99.90;;;;;;4968854;28;20050;-74
2023/01/23 00:36:06;;;;;;;24.13;18.10;;;2.60;99.90;;;;;;4968813;28;20073;-74
2023/01/23 00:38:32;;;;;;;23.20;17.63;;;2.60;99.90;;;;;;4951745;28;20129;-74
2023/01/23 00:40:57;;;;;;;23.33;19.05;;;2.60;99.90;;;;;;4966275;28;20240;-74
2023/01/23 00:43:24;;;;;;;23.10;17.95;;;2.60;99.90;;;;;;4969200;28;20117;-74
2023/01/23 00:45:50;;;;;;;23.05;17.90;;;2.60;99.90;;;;;;4968946;28;20099;-74
2023/01/23 00:48:16;;;;;;;24.30;17.73;;;2.60;99.90;;;;;;4950239;28;20050;-74
2023/01/23 00:50:41;;;;;;;25.48;18.38;;;2.70;99.90;;;;;;4953206;28;20113;-73
2023/01/23 00:53:07;;;;;;;24.80;18.73;;;2.60;99.90;;;;;;4968217;28;20054;-73
2023/01/23 00:55:33;;;;;;;21.42;17.48;;;2.60;99.90;;;;;;4968473;28;20742;-75
2023/01/23 00:57:59;;;;;;;24.40;18.90;;;2.60;99.90;;;;;;4985317;28;20412;-73
2023/01/23 01:00:25;;;;;;;24.25;18.23;;;2.60;99.90;;;;;;4982035;28;20461;-73
2023/01/23 01:02:50;;;;;;;28.10;18.85;;;2.60;99.90;;;;;;4984341;28;20389;-75
2023/01/23 01:05:17;;;;;;;25.63;19.40;;;2.60;99.90;;;;;;4983024;28;20042;-75
2023/01/23 01:07:46;;;;;;;23.77;18.67;;;2.60;99.90;;;;;;4951087;28;20057;-75
2023/01/23 01:10:13;;;;;;;25.27;19.38;;;2.60;99.90;;;;;;4968594;28;20073;-75
2023/01/23 01:12:39;;;;;;;23.52;18.88;;;2.60;99.90;;;;;;4980130;28;20054;-75
2023/01/23 01:15:07;;;;;;;27.43;20.43;;;2.60;99.90;;;;;;4951181;28;20117;-75
2023/01/23 01:17:32;;;;;;;23.73;19.55;;;2.60;99.90;;;;;;4983798;28;20054;-73
2023/01/23 01:19:58;;;;;;;26.02;19.88;;;2.60;99.90;;;;;;4959051;28;20046;-73
2023/01/23 01:22:24;;;;;;;23.35;19.48;;;2.60;99.90;;;;;;4982683;28;20084;-73
2023/01/23 01:24:50;;;;;;;23.90;19.20;;;2.60;99.90;;;;;;4982910;28;20042;-73
2023/01/23 01:27:16;;;;;;;26.92;19.55;;;2.60;99.90;;;;;;4984387;28;20501;-73
2023/01/23 01:29:42;;;;;;;25.02;20.23;;;2.60;99.90;;;;;;4984048;28;20074;-68
2023/01/23 01:32:08;;;;;;;27.33;20.92;;;2.60;99.90;;;;;;4952237;28;20081;-68
2023/01/23 01:34:33;;;;;;;24.92;19.05;;;2.60;99.90;;;;;;4968318;28;20122;-69
2023/01/23 01:37:00;;;;;;;24.17;18.73;;;2.50;99.90;;;;;;4952359;28;20084;-69
2023/01/23 01:39:26;;;;;;;27.83;21.25;;;2.50;99.90;;;;;;4965677;28;20054;-68
2023/01/23 01:41:52;;;;;;;25.37;20.67;;;2.50;99.90;;;;;;4964279;28;20050;-68
2023/01/23 01:44:20;;;;;;;26.67;21.77;;;2.50;99.90;;;;;;4974715;28;20042;-69
2023/01/23 01:46:46;;;;;;;26.00;19.58;;;2.50;99.90;;;;;;4982266;28;20389;-69
2023/01/23 01:49:14;;;;;;;27.70;21.20;;;2.60;99.90;;;;;;4967817;28;20040;-69
2023/01/23 01:52:01;;;;;;;22.98;20.40;;;2.50;99.90;;;;;;4967075;28;20066;-69
2023/01/23 01:54:41;;;;;;;25.70;20.53;;;2.60;99.90;;;;;;4984184;28;20104;-69
2023/01/23 01:57:24;;;;;;;26.00;20.08;;;2.50;99.90;;;;;;4979924;28;20077;-68
2023/01/23 02:00:02;;;;;;;29.52;21.27;;;2.60;99.90;;;;;;4976367;28;20057;-69
2023/01/23 02:02:34;;;;;;;25.67;19.83;;;2.60;99.90;;;;;;4983541;28;20054;-68
2023/01/23 02:05:04;;;;;;;25.35;20.80;;;2.60;99.90;;;;;;4982984;28;20104;-68
2023/01/23 02:07:38;;;;;;;24.63;18.85;;;2.60;99.90;;;;;;4978613;28;20595;-68
2023/01/23 02:10:08;;;;;;;28.63;20.23;;;2.60;99.90;;;;;;4981495;28;20134;-69
2023/01/23 02:12:37;;;;;;;25.08;19.52;;;2.60;99.90;;;;;;4999717;28;20046;-69
2023/01/23 02:15:05;;;;;;;23.35;19.73;;;2.60;99.90;;;;;;4963453;28;20129;-68
2023/01/23 02:17:34;;;;;;;24.88;19.48;;;2.60;99.90;;;;;;4966365;28;20509;-70
2023/01/23 02:20:24;;;;;;;23.25;20.08;;;2.60;99.90;;;;;;4962903;28;20053;-74
2023/01/23 02:23:28;;;;;;;26.40;20.55;;;2.60;99.90;;;;;;4965368;28;20073;-74
2023/01/23 02:26:00;;;;;;;24.70;20.13;;;2.60;99.90;;;;;;4973330;28;20078;-74
2023/01/23 02:28:38;;;;;;;23.15;20.25;;;2.60;99.90;;;;;;4980980;28;20061;-68
2023/01/23 02:31:05;;;;;;;25.42;20.42;;;2.60;99.90;;;;;;4983200;28;20042;-69
2023/01/23 02:33:30;;;;;;;24.55;19.65;;;2.70;99.90;;;;;;4981915;28;20512;-68
2023/01/23 02:36:02;;;;;;;23.15;19.63;;;2.60;99.90;;;;;;4982946;28;20058;-69
2023/01/23 02:38:59;;;;;;;24.10;19.33;;;2.60;99.90;;;;;;4982978;28;20548;-68
2023/01/23 02:41:30;;;;;;;24.15;19.92;;;2.70;99.90;;;;;;4981058;28;20073;-73
2023/01/23 02:43:59;;;;;;;20.52;18.30;;;2.70;99.90;;;;;;4983615;28;20109;-73
2023/01/23 02:46:26;;;;;;;25.88;19.88;;;2.60;99.90;;;;;;4980770;28;20046;-74
2023/01/23 02:48:52;;;;;;;22.52;18.95;;;2.60;99.90;;;;;;4983215;28;20054;-73
2023/01/23 02:51:19;;;;;;;23.15;19.20;;;2.60;99.90;;;;;;4968185;28;20043;-74
2023/01/23 02:53:45;;;;;;;25.27;20.70;;;2.60;99.90;;;;;;4966848;28;20464;-69
2023/01/23 02:56:11;;;;;;;25.33;21.67;;;2.60;99.90;;;;;;4949516;28;20038;-68
2023/01/23 03:01:25;;;;;;;25.58;20.25;;;2.60;99.90;;;;;;4981908;28;20050;-70
2023/01/23 03:03:52;;;;;;;24.17;19.60;;;2.60;99.90;;;;;;4963271;28;20773;-70
2023/01/23 03:06:19;;;;;;;23.92;19.35;;;2.60;99.90;;;;;;4953055;28;20680;-69
2023/01/23 03:08:48;;;;;;;24.40;19.85;;;2.60;99.90;;;;;;4965216;28;20536;-69
2023/01/23 03:11:17;;;;;;;22.90;18.95;;;2.60;99.90;;;;;;4950080;28;20126;-70
2023/01/23 03:13:44;;;;;;;22.83;19.83;;;2.60;99.90;;;;;;4982476;28;20077;-70
2023/01/23 03:16:10;;;;;;;24.60;20.25;;;2.60;99.90;;;;;;4987091;28;20446;-70
2023/01/23 03:18:36;;;;;;;24.20;20.45;;;2.60;99.90;;;;;;4987295;28;20038;-70
2023/01/23 03:21:03;;;;;;;24.30;19.90;;;2.60;99.90;;;;;;4967376;28;20069;-68
2023/01/23 03:23:29;;;;;;;24.92;21.02;;;2.60;99.90;;;;;;4954287;28;20109;-69
2023/01/23 03:25:57;;;;;;;26.70;20.88;;;2.60;99.90;;;;;;4966468;28;20077;-68
2023/01/23 03:31:15;;;;;;;22.63;20.23;;;2.60;99.90;;;;;;4983300;28;20049;-68
2023/01/23 03:33:42;;;;;;;24.02;21.20;;;2.60;99.90;;;;;;4971999;28;20461;-68
2023/01/23 03:36:11;;;;;;;27.17;22.13;;;2.60;99.90;;;;;;4969424;28;20076;-73
2023/01/23 03:38:38;;;;;;;25.65;20.67;;;2.60;99.90;;;;;;4984640;28;20046;-73
2023/01/23 03:43:48;;;;;;;28.15;22.15;;;2.60;99.90;;;;;;4981119;28;20390;-68
2023/01/23 03:46:14;;;;;;;24.30;20.65;;;2.60;99.90;;;;;;4963670;28;20042;-68
2023/01/23 03:48:40;;;;;;;25.45;20.75;;;2.60;99.90;;;;;;4954411;28;20424;-68
2023/01/23 03:51:06;;;;;;;28.52;21.88;;;2.60;99.90;;;;;;4969372;28;20084;-69
2023/01/23 03:53:32;;;;;;;27.38;21.20;;;2.60;99.90;;;;;;4968941;28;20046;-68
2023/01/23 03:55:57;;;;;;;26.40;21.48;;;2.60;99.90;;;;;;4980767;28;20101;-69
2023/01/23 03:58:23;;;;;;;25.60;21.58;;;2.60;99.90;;;;;;4968978;28;20042;-68
2023/01/23 04:00:49;;;;;;;25.45;21.20;;;2.60;99.90;;;;;;4953255;28;20046;-69
2023/01/23 04:03:15;;;;;;;24.85;21.75;;;2.60;99.90;;;;;;4985504;28;20134;-68
2023/01/23 04:05:41;;;;;;;24.60;21.60;;;2.50;99.90;;;;;;4987649;28;20054;-68
2023/01/23 04:08:07;;;;;;;28.38;22.95;;;2.50;99.90;;;;;;4985738;28;20077;-68
2023/01/23 04:10:32;;;;;;;24.67;21.40;;;2.50;99.90;;;;;;4980407;28;20050;-69
2023/01/23 04:12:58;;;;;;;27.63;21.42;;;2.60;99.90;;;;;;4935726;28;20050;-69
2023/01/23 04:15:24;;;;;;;24.95;22.35;;;2.60;99.90;;;;;;4962660;28;20047;-68
2023/01/23 04:17:49;;;;;;;27.17;21.38;;;2.60;99.90;;;;;;4972849;28;20050;-69
2023/01/23 04:20:15;;;;;;;28.23;22.00;;;2.60;99.90;;;;;;4972163;28;20490;-73
2023/01/23 04:22:41;;;;;;;26.80;21.90;;;2.60;99.90;;;;;;4969702;28;20046;-74
2023/01/23 04:25:07;;;;;;;30.30;21.52;;;2.50;99.90;;;;;;4937266;28;20034;-73
2023/01/23 04:27:33;;;;;;;27.83;21.98;;;2.60;99.90;;;;;;4985263;28;20574;-74
2023/01/23 04:29:58;;;;;;;27.38;22.73;;;2.60;99.90;;;;;;4952850;28;20133;-74
2023/01/23 04:32:25;;;;;;;25.33;22.60;;;2.60;99.90;;;;;;4968211;28;20528;-74
2023/01/23 04:34:50;;;;;;;28.92;22.90;;;2.60;99.90;;;;;;4971006;28;20169;-73
2023/01/23 04:37:16;;;;;;;26.00;22.42;;;2.60;99.90;;;;;;4987470;28;20602;-73
2023/01/23 04:39:42;;;;;;;27.77;22.50;;;2.50;99.90;;;;;;4973820;28;20502;-73
2023/01/23 04:42:08;;;;;;;27.85;22.63;;;2.50;99.90;;;;;;4960152;28;20043;-73
2023/01/23 04:44:37;;;;;;;25.48;22.13;;;2.60;99.90;;;;;;4963305;28;20042;-74
2023/01/23 04:47:03;;;;;;;26.35;22.23;;;2.50;99.90;;;;;;4966527;28;20050;-74
2023/01/23 04:49:29;;;;;;;28.02;23.15;;;2.60;99.90;;;;;;4970965;28;20047;-73
2023/01/23 04:51:54;;;;;;;26.17;22.80;;;2.60;99.90;;;;;;4969014;28;20054;-73
2023/01/23 04:54:21;;;;;;;30.13;23.15;;;2.60;99.90;;;;;;4946983;28;20054;-74
2023/01/23 04:56:47;;;;;;;30.55;25.45;;;2.60;99.90;;;;;;4988634;28;20041;-68
2023/01/23 04:59:15;;;;;;;26.73;23.13;;;2.60;99.90;;;;;;4971049;28;20050;-68
2023/01/23 05:01:41;;;;;;;29.42;24.58;;;2.50;99.90;;;;;;4984183;28;20125;-68
2023/01/23 05:04:07;;;;;;;28.27;23.63;;;2.60;99.90;;;;;;4985768;28;20121;-68
2023/01/23 05:06:32;;;;;;;28.88;24.40;;;2.50;99.90;;;;;;4986454;28;20046;-73
2023/01/23 05:08:58;;;;;;;27.20;23.73;;;2.50;99.90;;;;;;4950670;28;20050;-73
2023/01/23 05:11:24;;;;;;;29.73;23.15;;;2.50;99.90;;;;;;4970725;28;20038;-69
2023/01/23 05:13:50;;;;;;;27.83;24.02;;;2.50;99.90;;;;;;4956336;28;20046;-74
2023/01/23 05:16:16;;;;;;;28.13;23.45;;;2.50;99.90;;;;;;4969106;28;20097;-74
2023/01/23 05:18:41;;;;;;;28.90;23.83;;;2.50;99.90;;;;;;4951561;28;20185;-74
2023/01/23 05:21:07;;;;;;;29.77;24.73;;;2.50;99.90;;;;;;4982510;28;20053;-68
2023/01/23 05:23:33;;;;;;;27.88;23.38;;;2.50;99.90;;;;;;4953032;28;20098;-69
2023/01/23 05:25:59;;;;;;;29.15;24.10;;;2.60;99.90;;;;;;4964975;28;20552;-69
2023/01/23 05:28:25;;;;;;;29.88;24.30;;;2.50;99.90;;;;;;4965295;28;20121;-68
2023/01/23 05:30:51;;;;;;;28.33;24.48;;;2.50;99.90;;;;;;4983084;28;20073;-68
2023/01/23 05:33:16;;;;;;;32.83;24.50;;;2.60;99.90;;;;;;4950881;28;20115;-68
2023/01/23 05:35:42;;;;;;;28.10;24.50;;;2.50;99.90;;;;;;4967266;28;20069;-68
2023/01/23 05:38:10;;;;;;;28.55;23.98;;;2.50;99.90;;;;;;4967066;28;20046;-68
2023/01/23 05:40:36;;;;;;;32.42;25.08;;;2.50;99.90;;;;;;4983681;28;20049;-71
2023/01/23 05:43:02;;;;;;;27.85;23.58;;;2.50;99.90;;;;;;4956393;28;20042;-68
2023/01/23 05:45:27;;;;;;;29.17;23.08;;;2.50;99.90;;;;;;4964962;28;20139;-68
2023/01/23 05:47:54;;;;;;;26.95;23.67;;;2.60;99.90;;;;;;4949023;28;20065;-74
2023/01/23 05:50:22;;;;;;;27.23;23.02;;;2.50;99.90;;;;;;4965251;28;20111;-73
2023/01/23 05:52:48;;;;;;;32.28;24.92;;;2.50;99.90;;;;;;4964888;28;20528;-73
2023/01/23 05:55:14;;;;;;;26.55;22.90;;;2.50;99.90;;;;;;4971396;28;20042;-74
2023/01/23 05:57:40;;;;;;;30.30;24.70;;;2.50;99.90;;;;;;4957593;28;20129;-74
2023/01/23 06:00:07;;;;;;;25.67;22.77;;;2.50;99.90;;;;;;4979008;28;20100;-74
2023/01/23 06:02:33;;;;;;;25.48;22.52;;;2.50;99.90;;;;;;4964241;28;20493;-73
2023/01/23 06:04:59;;;;;;;30.60;24.17;;;2.50;99.90;;;;;;4975730;28;20611;-74
2023/01/23 06:07:25;;;;;;;26.98;22.63;;;2.50;99.90;;;;;;4966938;28;20058;-69
2023/01/23 06:09:51;;;;;;;28.42;22.45;;;2.50;99.90;;;;;;4968199;28;20046;-69
2023/01/23 06:12:16;;;;;;;29.73;23.35;;;2.60;99.90;;;;;;4962158;28;20104;-69
2023/01/23 06:14:42;;;;;;;30.02;23.88;;;2.50;99.90;;;;;;4964003;28;20108;-69
2023/01/23 06:17:10;;;;;;;30.27;22.75;;;2.50;99.90;;;;;;4963037;28;20055;-74
2023/01/23 06:19:36;;;;;;;26.77;23.40;;;2.50;99.90;;;;;;4980634;28;20118;-74
2023/01/23 06:22:02;;;;;;;25.95;23.02;;;2.50;99.90;;;;;;4965719;28;20054;-74
2023/01/23 06:24:28;;;;;;;29.67;25.08;;;2.60;99.90;;;;;;4944130;28;20030;-74
2023/01/23 06:26:53;;;;;;;26.30;23.60;;;2.50;99.90;;;;;;4949151;28;20058;-75
2023/01/23 06:29:19;;;;;;;28.77;24.52;;;2.50;99.90;;;;;;4962309;28;20050;-74
2023/01/23 06:31:46;;;;;;;26.80;23.90;;;2.50;99.90;;;;;;4942330;28;20042;-73
2023/01/23 06:34:12;;;;;;;29.37;24.23;;;2.50;99.90;;;;;;4962848;28;20389;-75
2023/01/23 06:36:39;;;;;;;27.92;23.40;;;2.50;99.90;;;;;;4956437;28;20053;-74
2023/01/23 06:39:06;;;;;;;27.10;23.45;;;2.50;99.90;;;;;;4978602;28;20058;-74
2023/01/23 06:41:32;;;;;;;29.38;24.35;;;2.50;99.90;;;;;;4960860;28;20579;-75
2023/01/23 06:43:57;;;;;;;29.52;25.40;;;2.50;99.90;;;;;;4960925;28;20046;-75
2023/01/23 06:46:23;;;;;;;28.45;24.50;;;2.50;99.90;;;;;;4947279;28;20074;-73
2023/01/23 06:48:51;;;;;;;33.35;24.35;;;2.60;99.90;;;;;;4982531;28;20475;-74
2023/01/23 06:51:17;;;;;;;33.28;25.65;;;2.50;99.90;;;;;;4965023;28;20744;-71
2023/01/23 06:53:42;;;;;;;29.33;25.83;;;2.60;99.90;;;;;;4966262;28;20050;-75
2023/01/23 06:56:09;;;;;;;29.67;24.63;;;2.60;99.90;;;;;;4970064;28;20046;-74
2023/01/23 06:58:37;;;;;;;29.48;25.00;;;2.50;99.90;;;;;;4986630;28;20066;-75
2023/01/23 07:01:08;;;;;;;32.17;25.10;;;2.50;99.90;;;;;;4939655;28;20042;-75
2023/01/23 07:03:35;;;;;;;31.08;24.83;;;2.50;99.90;;;;;;4967859;28;20113;-75
2023/01/23 07:06:05;;;;;;;31.13;25.63;;;2.50;99.90;;;;;;5002298;28;20485;-75
2023/01/23 07:08:32;;;;;;;32.22;26.65;;;2.50;99.90;;;;;;4968457;28;20049;-75
2023/01/23 07:10:58;;;;;;;31.33;26.17;;;2.50;99.90;;;;;;4965934;28;20458;-75
2023/01/23 07:13:24;;;;;;;27.92;24.60;;;2.50;99.90;;;;;;4985184;28;20483;-70
2023/01/23 07:15:50;;;;;;;29.10;23.67;;;2.50;99.90;;;;;;4984534;28;20046;-70
2023/01/23 07:18:16;;;;;;;30.40;23.92;;;2.50;99.90;;;;;;4970194;28;20408;-71
2023/01/23 07:20:45;;;;;;;29.33;24.00;;;2.50;99.90;;;;;;4967987;28;20424;-70
2023/01/23 07:23:11;;;;;;;30.88;24.23;;;2.50;99.90;;;;;;4966225;28;20088;-69
2023/01/23 07:25:38;;;;;;;32.40;24.95;;;2.50;99.90;;;;;;4971503;28;20115;-69
2023/01/23 07:28:04;;;;;;;28.65;24.60;;;2.50;99.90;;;;;;4989368;28;20439;-68
2023/01/23 07:30:31;;;;;;;27.85;24.42;;;2.50;99.90;;;;;;4974929;28;20057;-73
2023/01/23 07:32:57;;;;;;;27.63;23.88;;;2.50;99.90;;;;;;4983858;28;20500;-73
2023/01/23 07:35:24;;;;;;;29.05;23.92;;;2.50;99.90;;;;;;4987986;28;20042;-73
2023/01/23 07:37:50;;;;;;;25.50;22.42;;;2.50;99.90;;;;;;4986352;28;20468;-73
2023/01/23 07:40:16;;;;;;;29.08;22.75;;;2.50;99.90;;;;;;4968147;28;20033;-73
2023/01/23 07:42:42;;;;;;;29.60;24.02;;;2.50;99.90;;;;;;4971969;28;20349;-73
2023/01/23 07:45:09;;;;;;;26.42;23.55;;;2.50;99.90;;;;;;4968469;28;20436;-73
2023/01/23 07:47:36;;;;;;;28.17;24.38;;;2.50;99.90;;;;;;4957301;28;20132;-73
2023/01/23 07:50:01;;;;;;;26.45;23.23;;;2.50;99.90;;;;;;4988162;28;20049;-74
2023/01/23 07:52:27;;;;;;;31.75;23.95;;;2.60;99.90;;;;;;4988207;28;20054;-73
2023/01/23 07:54:53;;;;;;;27.73;23.17;;;2.60;99.90;;;;;;4972392;28;20049;-74
2023/01/23 07:57:19;;;;;;;27.40;23.77;;;2.50;99.90;;;;;;4951722;28;20109;-74
2023/01/23 07:59:46;;;;;;;27.15;23.95;;;2.60;99.90;;;;;;4971168;28;20088;-73
2023/01/23 08:02:12;;;;;;;28.08;23.98;;;2.50;99.90;;;;;;4972817;28;20054;-74
2023/01/23 08:04:38;;;;;;;28.25;23.83;;;2.50;99.90;;;;;;4967465;28;20085;-73
2023/01/23 08:07:05;;;;;;;26.15;23.45;;;2.50;99.90;;;;;;4982471;28;20099;-73
2023/01/23 08:09:31;;;;;;;31.58;24.35;;;2.50;99.90;;;;;;4969338;28;20046;-74
2023/01/23 08:11:57;;;;;;;28.25;22.92;;;2.60;99.90;;;;;;4969867;28;20115;-73
2023/01/23 08:14:23;;;;;;;25.20;22.45;;;2.60;99.90;;;;;;4968878;28;20050;-73
2023/01/23 08:16:52;;;;;;;25.33;22.10;;;2.60;99.90;;;;;;5003876;28;20404;-74
2023/01/23 08:19:19;;;;;;;25.65;22.45;;;2.60;99.90;;;;;;4986951;28;20054;-73
2023/01/23 08:21:46;;;;;;;26.48;22.65;;;2.60;99.90;;;;;;4979934;28;20184;-73
2023/01/23 08:24:12;;;;;;;25.07;21.87;;;2.60;99.90;;;;;;4951202;28;20504;-73
2023/01/23 08:26:40;;;;;;;27.65;21.35;;;2.60;99.90;;;;;;4953266;28;20454;-73
2023/01/23 08:29:06;;;;;;;25.80;21.80;;;2.60;99.90;;;;;;4974257;28;20077;-73
2023/01/23 08:31:32;;;;;;;27.83;21.83;;;2.60;99.90;;;;;;4957260;28;20105;-73
2023/01/23 08:33:58;;;;;;;28.02;22.77;;;2.70;99.90;;;;;;4963928;28;20074;-73
2023/01/23 08:36:24;;;;;;;25.77;22.35;;;2.60;99.90;;;;;;4970940;28;20088;-74
2023/01/23 08:38:50;;;;;;;25.92;21.20;;;2.70;99.90;;;;;;4986619;28;20412;-73
2023/01/23 08:41:16;;;;;;;25.48;20.95;;;2.70;99.90;;;;;;4953693;28;20443;-73
2023/01/23 08:43:42;;;;;;;23.73;20.58;;;2.70;99.90;;;;;;4983466;28;20547;-73
2023/01/23 08:46:09;;;;;;;24.80;21.35;;;2.70;99.90;;;;;;4970690;28;20041;-73
2023/01/23 08:48:35;;;;;;;23.67;21.05;;;2.70;99.90;;;;;;4956593;28;20069;-74
2023/01/23 08:51:03;;;;;;;23.67;20.40;;;2.80;99.90;;;;;;4987205;28;20073;-73
2023/01/23 08:53:31;;;;;;;22.98;20.00;;;2.70;99.90;;;;;;4987625;28;20512;-73
2023/01/23 08:55:59;;;;;;;23.40;20.02;;;2.70;99.90;;;;;;4970856;28;20497;-73
2023/01/23 08:58:26;;;;;;;24.23;20.20;;;2.70;99.90;;;;;;4956409;28;20054;-73
2023/01/23 09:00:51;;;;;;;21.25;18.90;;;2.70;99.90;;;;;;4967955;28;20103;-73
2023/01/23 09:03:17;;;;;;;20.83;18.73;;;2.80;99.90;;;;;;4969597;28;20449;-73
2023/01/23 09:05:43;;;;;;;21.88;18.55;;;2.80;99.90;;;;;;4965040;28;20029;-73
2023/01/23 09:08:09;;;;;;;23.42;18.90;;;2.80;99.90;;;;;;4984422;28;20088;-73
2023/01/23 09:10:35;;;;;;;19.58;17.52;;;2.80;99.90;;;;;;4965752;28;20058;-74
2023/01/23 09:13:01;;;;;;;19.33;17.08;;;2.80;99.90;;;;;;4948911;28;20034;-74
2023/01/23 09:15:27;;;;;;;18.05;15.80;;;2.80;99.90;;;;;;4964823;28;20038;-73
2023/01/23 09:17:52;;;;;;;17.50;15.68;;;2.80;99.90;;;;;;4963167;28;20046;-74
2023/01/23 09:20:18;;;;;;;17.63;14.82;;;2.80;99.90;;;;;;4985617;28;20100;-73
2023/01/23 09:22:44;;;;;;;17.30;15.38;;;2.90;99.90;;;;;;4969531;28;20177;-73
2023/01/23 09:25:11;;;;;;;17.75;15.70;;;2.90;99.90;;;;;;4984116;28;20419;-73
2023/01/23 09:27:37;;;;;;;16.52;14.38;;;2.90;99.90;;;;;;4982720;28;20058;-73
2023/01/23 09:30:04;;;;;;;15.38;13.77;;;2.90;99.90;;;;;;4985307;28;20050;-72
2023/01/23 09:32:30;;;;;;;16.08;14.20;;;3.00;99.90;;;;;;4952295;28;20054;-73
2023/01/23 09:34:59;;;;;;;15.75;14.10;;;3.00;99.90;;;;;;4965757;28;20052;-73
2023/01/23 09:37:27;;;;;;;15.57;13.98;;;2.90;99.90;;;;;;4953056;28;20774;-72
2023/01/23 09:39:53;;;;;;;17.25;15.30;;;3.00;99.90;;;;;;4966594;28;20038;-75
2023/01/23 09:42:37;;;;;;;17.60;14.43;;;3.00;99.90;;;;;;4983067;28;20477;-75
2023/01/23 09:45:06;;;;;;;16.15;14.48;;;3.10;99.90;;;;;;4968514;28;20156;-74
2023/01/23 09:47:50;;;;;;;15.43;13.63;;;3.10;99.90;;;;;;4981794;28;20049;-74
2023/01/23 09:50:22;;;;;;;17.60;14.27;;;3.10;99.90;;;;;;4968851;28;20103;-73
2023/01/23 09:52:54;;;;;;;15.63;14.13;;;3.30;99.90;;;;;;4984184;28;20099;-73
2023/01/23 09:55:55;;;;;;;16.33;13.15;;;3.20;99.90;;;;;;4986515;28;20121;-73
2023/01/23 09:58:46;;;;;;;14.30;12.82;;;3.20;99.90;;;;;;4959284;28;20111;-75
2023/01/23 10:01:15;;;;;;;13.52;12.13;;;3.20;99.90;;;;;;4968095;28;20080;-73
2023/01/23 10:03:41;;;;;;;14.13;12.65;;;3.20;99.90;;;;;;4984511;28;20038;-73
2023/01/23 10:06:19;;;;;;;13.93;12.50;;;3.20;99.90;;;;;;4962805;28;20058;-73
2023/01/23 10:09:22;;;;;;;13.88;12.48;;;3.20;99.90;;;;;;4974718;28;20472;-72
2023/01/23 10:12:12;;;;;;;12.70;11.27;;;3.30;99.90;;;;;;4969772;28;20129;-72
2023/01/23 10:15:02;;;;;;;14.43;12.90;;;3.30;99.90;;;;;;4962253;28;20497;-73
2023/01/23 10:17:40;;;;;;;13.68;12.23;;;3.30;99.90;;;;;;4957754;28;20126;-73
2023/01/23 10:20:45;;;;;;;12.13;10.82;;;3.30;99.90;;;;;;4972291;28;20104;-73
2023/01/23 10:23:20;;;;;;;12.48;11.27;;;3.40;99.90;;;;;;4967651;28;20054;-73
2023/01/23 10:25:47;;;;;;;13.20;11.20;;;3.40;99.90;;;;;;4981527;28;20153;-73
2023/01/23 10:28:34;;;;;;;12.73;11.40;;;3.40;99.90;;;;;;4964008;28;20543;-74
2023/01/23 10:31:03;;;;;;;13.13;10.85;;;3.40;99.90;;;;;;4963785;28;20053;-73
2023/01/23 10:33:44;;;;;;;11.52;10.43;;;3.40;99.90;;;;;;4984408;28;20050;-74
2023/01/23 10:36:33;;;;;;;12.50;11.23;;;3.50;99.90;;;;;;4979208;28;20058;-74
2023/01/23 10:39:13;;;;;;;12.85;11.57;;;3.50;99.90;;;;;;4965804;28;20046;-74
2023/01/23 10:41:39;;;;;;;12.68;11.43;;;3.40;99.90;;;;;;4963156;28;20042;-74
2023/01/23 10:44:15;;;;;;;12.60;11.40;;;3.50;99.90;;;;;;4964724;28;20046;-74
2023/01/23 10:46:54;;;;;;;12.13;10.93;;;3.50;99.90;;;;;;4964889;28;20047;-74
2023/01/23 10:49:38;;;;;;;11.98;10.77;;;3.50;99.90;;;;;;4978208;28;20145;-70
2023/01/23 10:52:32;;;;;;;12.10;10.85;;;3.50;99.90;;;;;;4980558;28;20112;-69
2023/01/23 10:54:58;;;;;;;11.45;10.23;;;3.50;99.90;;;;;;4979048;28;20489;-70
2023/01/23 10:57:27;;;;;;;12.40;11.10;;;3.50;99.90;;;;;;4963366;28;20497;-69
2023/01/23 10:59:59;;;;;;;13.10;11.45;;;3.50;99.90;;;;;;4964197;28;20078;-69
2023/01/23 11:02:33;;;;;;;12.60;11.30;;;3.60;99.90;;;;;;4979013;28;20555;-69
2023/01/23 11:05:00;;;;;;;12.50;11.15;;;3.60;99.90;;;;;;4957724;28;20783;-69
2023/01/23 11:07:31;;;;;;;12.25;10.93;;;3.60;99.90;;;;;;4965132;28;20064;-69
2023/01/23 11:10:00;;;;;;;11.98;10.55;;;3.60;99.90;;;;;;4966696;28;20116;-70
2023/01/23 11:12:49;;;;;;;12.43;11.15;;;3.60;99.90;;;;;;4963368;28;20046;-69
2023/01/23 11:15:22;;;;;;;12.50;11.07;;;3.60;99.90;;;;;;4979097;28;20397;-71
2023/01/23 11:17:49;;;;;;;13.00;11.70;;;3.60;99.90;;;;;;4997248;28;20031;-70
2023/01/23 11:20:36;;;;;;;13.10;11.80;;;3.60;99.90;;;;;;4978813;28;20050;-69
2023/01/23 11:23:05;;;;;;;12.73;11.52;;;3.60;99.90;;;;;;4975489;28;20042;-69
2023/01/23 11:25:36;;;;;;;12.40;11.07;;;3.60;99.90;;;;;;4980950;28;20058;-69
2023/01/23 11:28:39;;;;;;;12.20;11.00;;;3.60;99.90;;;;;;4981106;28;20138;-69
2023/01/23 11:31:11;;;;;;;14.25;11.88;;;3.60;99.90;;;;;;4980606;28;20081;-68
2023/01/23 11:33:57;;;;;;;14.35;12.80;;;3.60;99.90;;;;;;4967939;28;20042;-70
2023/01/23 11:37:01;;;;;;;13.82;12.43;;;3.60;99.90;;;;;;4977031;28;20053;-69
2023/01/23 11:39:41;;;;;;;15.10;12.75;;;3.70;99.90;;;;;;4979018;28;20145;-68
2023/01/23 11:42:11;;;;;;;13.75;12.35;;;3.60;99.90;;;;;;4977884;28;20125;-68
2023/01/23 11:44:39;;;;;;;15.00;12.75;;;3.70;99.90;;;;;;4969328;28;20050;-68
2023/01/23 11:47:29;;;;;;;14.35;12.50;;;3.70;99.90;;;;;;4981427;28;20055;-69
2023/01/23 11:50:10;;;;;;;14.88;12.90;;;3.60;99.90;;;;;;4975755;28;20050;-68
2023/01/23 11:52:47;;;;;;;13.82;12.43;;;3.60;99.90;;;;;;4985036;28;20463;-69
2023/01/23 11:55:37;;;;;;;14.63;12.50;;;3.70;99.90;;;;;;4985530;28;20497;-69
2023/01/23 11:58:29;;;;;;;13.70;12.38;;;3.60;99.90;;;;;;4966654;28;20062;-74
2023/01/23 12:01:28;;;;;;;14.38;12.98;;;3.70;99.90;;;;;;4931276;28;20320;-74
2023/01/23 12:04:12;;;;;;;14.63;13.23;;;3.70;99.90;;;;;;4972555;28;20041;-73
2023/01/23 12:06:43;;;;;;;14.77;13.27;;;3.70;99.90;;;;;;4984131;28;20135;-73
2023/01/23 12:09:20;;;;;;;14.65;13.25;;;3.70;99.90;;;;;;4968189;28;20057;-73
2023/01/23 12:11:52;;;;;;;13.82;12.52;;;3.70;99.90;;;;;;4955600;28;20054;-73
2023/01/23 12:14:27;;;;;;;14.95;13.43;;;3.70;99.90;;;;;;4984756;28;20050;-73
2023/01/23 12:17:14;;;;;;;15.60;14.13;;;3.70;99.90;;;;;;4984268;28;20133;-74
2023/01/23 12:20:18;;;;;;;15.77;14.18;;;3.70;99.90;;;;;;4984933;28;20065;-74
2023/01/23 12:22:43;;;;;;;15.20;13.55;;;3.70;99.90;;;;;;4984070;28;20057;-74
2023/01/23 12:25:37;;;;;;;15.23;13.77;;;3.70;99.90;;;;;;4984644;28;20307;-74
2023/01/23 12:28:37;;;;;;;15.20;13.48;;;3.70;99.90;;;;;;4968276;28;20109;-73
2023/01/23 12:31:44;;;;;;;15.63;14.02;;;3.70;99.90;;;;;;4980247;28;20050;-73
2023/01/23 12:34:33;;;;;;;15.40;13.80;;;3.70;99.90;;;;;;4971457;28;20050;-74
2023/01/23 12:37:09;;;;;;;14.75;13.35;;;3.70;99.90;;;;;;4966722;28;20054;-73
2023/01/23 12:40:06;;;;;;;15.40;13.75;;;3.70;99.90;;;;;;4984131;28;20050;-73
2023/01/23 12:43:04;;;;;;;15.20;13.70;;;3.70;99.90;;;;;;4965055;28;20042;-74
2023/01/23 12:45:32;;;;;;;15.68;13.98;;;3.70;99.90;;;;;;4972398;28;20063;-73
2023/01/23 12:48:04;;;;;;;15.90;14.30;;;3.70;99.90;;;;;;4986043;28;20510;-73
2023/01/23 12:50:39;;;;;;;16.27;14.70;;;3.70;99.90;;;;;;4982040;28;20062;-73
2023/01/23 12:53:11;;;;;;;17.25;15.50;;;3.70;99.90;;;;;;4966830;28;20061;-73
2023/01/23 12:55:49;;;;;;;16.48;14.73;;;3.80;99.90;;;;;;4963202;28;20524;-74
2023/01/23 12:58:17;;;;;;;16.88;15.10;;;3.80;99.90;;;;;;4982925;28;20100;-73
2023/01/23 13:01:06;;;;;;;17.90;16.08;;;3.90;99.90;;;;;;4964881;28;20536;-73